Time;durP1;ratioP1;P1;durP2;ratioP2;P2;SDS_P1;SDS_P2;PMS_P1;PMS_P2;Temp;Humidity;BMP_temperature;BMP_pressure;BME280_temperature;BME280_humidity;BME280_pressure;Samples;Min_cycle;Max_cycle;Signal;HPM_P1;HPM_P2
2023/05/06 00:00:59;;;;;;;7.10;5.25;;;10.70;99.90;;;;;;5046595;28;20504;-61
2023/05/06 00:03:25;;;;;;;5.60;5.05;;;10.60;99.90;;;;;;5036414;28;20045;-60
2023/05/06 00:05:51;;;;;;;5.68;5.18;;;10.60;99.90;;;;;;5041035;28;20037;-58
2023/05/06 00:08:16;;;;;;;5.97;5.38;;;10.60;99.90;;;;;;5041255;28;20079;-60
2023/05/06 00:10:42;;;;;;;6.72;5.72;;;10.60;99.90;;;;;;5036921;28;20161;-58
2023/05/06 00:13:08;;;;;;;6.72;5.88;;;10.60;99.90;;;;;;5038047;28;20041;-59
2023/05/06 00:15:34;;;;;;;6.20;5.55;;;10.50;99.90;;;;;;5042294;28;20056;-59
2023/05/06 00:18:00;;;;;;;5.82;5.20;;;10.50;99.90;;;;;;5043732;28;20053;-59
2023/05/06 00:20:26;;;;;;;6.20;4.70;;;10.50;99.90;;;;;;5052050;28;20491;-58
2023/05/06 00:22:52;;;;;;;5.80;5.28;;;10.50;99.90;;;;;;5048188;28;20067;-58
2023/05/06 00:25:18;;;;;;;7.30;5.05;;;10.50;99.90;;;;;;5049868;28;20084;-58
2023/05/06 00:27:44;;;;;;;7.15;5.35;;;10.50;99.90;;;;;;5050600;28;20028;-60
2023/05/06 00:30:10;;;;;;;6.95;5.93;;;10.60;99.90;;;;;;5045208;28;20052;-60
2023/05/06 00:32:36;;;;;;;6.97;5.28;;;10.50;99.90;;;;;;5051864;28;20103;-61
2023/05/06 00:35:02;;;;;;;5.60;5.05;;;10.60;99.90;;;;;;5049259;28;20041;-58
2023/05/06 00:37:28;;;;;;;5.85;5.25;;;10.60;99.90;;;;;;5047992;28;20089;-58
2023/05/06 00:39:53;;;;;;;5.80;5.20;;;10.60;99.90;;;;;;5052664;28;20037;-60
2023/05/06 00:42:22;;;;;;;5.63;5.03;;;10.60;99.90;;;;;;5049509;28;20041;-58
2023/05/06 00:44:48;;;;;;;6.57;5.47;;;10.50;99.90;;;;;;5041366;28;20124;-61
2023/05/06 00:47:14;;;;;;;6.05;5.45;;;10.60;99.90;;;;;;5049808;28;20510;-60
2023/05/06 00:49:40;;;;;;;6.25;5.20;;;10.60;99.90;;;;;;5045747;28;20033;-58
2023/05/06 00:52:06;;;;;;;8.98;5.47;;;10.60;99.90;;;;;;5044673;28;20071;-59
2023/05/06 00:54:32;;;;;;;5.40;4.90;;;10.70;99.90;;;;;;5050037;28;20045;-61
2023/05/06 00:56:58;;;;;;;7.82;5.18;;;10.70;99.90;;;;;;5043348;28;20045;-61
2023/05/06 00:59:24;;;;;;;5.50;4.85;;;10.80;99.90;;;;;;5047578;28;20044;-59
2023/05/06 01:01:51;;;;;;;6.50;5.30;;;10.80;99.90;;;;;;5038807;28;20056;-59
2023/05/06 01:04:17;;;;;;;8.70;6.63;;;10.80;99.90;;;;;;5037187;28;20044;-59
2023/05/06 01:07:18;;;;;;;7.38;5.65;;;10.80;99.90;;;;;;5040823;28;20059;-60
2023/05/06 01:09:59;;;;;;;7.88;6.03;;;10.70;99.90;;;;;;5047669;28;20029;-59
2023/05/06 01:12:48;;;;;;;7.25;5.93;;;10.70;99.90;;;;;;5038533;28;20048;-60
2023/05/06 01:15:20;;;;;;;6.82;5.72;;;10.80;99.90;;;;;;5036139;28;20448;-59
2023/05/06 01:17:50;;;;;;;8.73;6.07;;;10.80;99.90;;;;;;5038041;28;20102;-60
2023/05/06 01:20:18;;;;;;;7.18;6.28;;;10.80;99.90;;;;;;5056703;28;20040;-59
2023/05/06 01:22:44;;;;;;;6.50;5.80;;;10.80;99.90;;;;;;5047488;28;20484;-59
2023/05/06 01:25:20;;;;;;;6.65;5.43;;;10.80;99.90;;;;;;5046610;28;20044;-59
2023/05/06 01:27:46;;;;;;;8.50;6.60;;;10.90;99.90;;;;;;5035442;28;20049;-61
2023/05/06 01:30:13;;;;;;;8.23;6.70;;;10.80;99.90;;;;;;5049347;28;20442;-60
2023/05/06 01:33:06;;;;;;;8.43;6.72;;;10.80;99.90;;;;;;5035584;28;20030;-59
2023/05/06 01:35:37;;;;;;;;;;;10.80;99.90;;;;;;5039979;28;20441;-60
2023/05/06 01:38:28;;;;;;;8.77;6.80;;;10.80;99.90;;;;;;5044320;28;20372;-60
2023/05/06 01:40:55;;;;;;;7.18;6.47;;;10.70;99.90;;;;;;5039543;28;20053;-60
2023/05/06 01:43:23;;;;;;;9.80;7.45;;;10.70;99.90;;;;;;5037788;28;20044;-60
2023/05/06 01:45:52;;;;;;;8.75;6.72;;;10.60;99.90;;;;;;5038848;28;20495;-59
2023/05/06 01:48:25;;;;;;;7.93;7.10;;;10.60;99.90;;;;;;5039948;28;20028;-61
2023/05/06 01:50:51;;;;;;;9.73;7.22;;;10.60;99.90;;;;;;5039587;28;20112;-59
2023/05/06 01:53:17;;;;;;;7.63;6.78;;;10.60;99.90;;;;;;5036501;28;20268;-60
2023/05/06 01:55:42;;;;;;;7.15;6.20;;;10.60;99.90;;;;;;5038813;28;20438;-60
2023/05/06 01:58:08;;;;;;;8.10;6.68;;;10.60;99.90;;;;;;5034882;28;20072;-60
2023/05/06 02:00:37;;;;;;;7.75;6.95;;;10.60;99.90;;;;;;5042954;28;20044;-59
2023/05/06 02:03:02;;;;;;;8.15;6.95;;;10.50;99.90;;;;;;5049337;28;20530;-60
2023/05/06 02:05:28;;;;;;;8.43;6.38;;;10.50;99.90;;;;;;5048098;28;20064;-59
2023/05/06 02:07:54;;;;;;;9.00;6.80;;;10.50;99.90;;;;;;5042010;28;20029;-59
2023/05/06 02:10:19;;;;;;;8.45;7.50;;;10.50;99.90;;;;;;5049647;28;20130;-60
2023/05/06 02:12:45;;;;;;;11.10;7.50;;;10.50;99.90;;;;;;5047941;28;20501;-59
2023/05/06 02:15:11;;;;;;;9.63;6.60;;;10.50;99.90;;;;;;5048318;28;20032;-61
2023/05/06 02:17:37;;;;;;;8.43;7.05;;;10.50;99.90;;;;;;5049014;28;20130;-59
2023/05/06 02:20:03;;;;;;;8.77;6.53;;;10.50;99.90;;;;;;5045631;28;20049;-61
2023/05/06 02:22:29;;;;;;;10.20;7.90;;;10.40;99.90;;;;;;5044715;28;20056;-60
2023/05/06 02:24:55;;;;;;;9.50;7.75;;;10.40;99.90;;;;;;5037340;28;20045;-61
2023/05/06 02:27:20;;;;;;;11.63;8.23;;;10.40;99.90;;;;;;5036610;28;20040;-60
2023/05/06 02:29:46;;;;;;;10.02;7.38;;;10.40;99.90;;;;;;5048708;28;20498;-59
2023/05/06 02:32:11;;;;;;;10.70;8.35;;;10.40;99.90;;;;;;5034318;28;20041;-59
2023/05/06 02:34:37;;;;;;;10.27;8.43;;;10.40;99.90;;;;;;5035476;28;20048;-59
2023/05/06 02:37:02;;;;;;;13.23;9.52;;;10.30;99.90;;;;;;5034926;28;20032;-60
2023/05/06 02:39:28;;;;;;;10.38;8.27;;;10.30;99.90;;;;;;5039112;28;20155;-60
2023/05/06 02:41:54;;;;;;;11.05;8.75;;;10.30;99.90;;;;;;5060991;28;20075;-61
2023/05/06 02:44:19;;;;;;;10.55;8.65;;;10.30;99.90;;;;;;5039460;28;20051;-59
2023/05/06 02:46:45;;;;;;;10.82;8.57;;;10.30;99.90;;;;;;5038401;28;20045;-60
2023/05/06 02:49:11;;;;;;;11.27;8.32;;;10.30;99.90;;;;;;5050718;28;20040;-60
2023/05/06 02:51:36;;;;;;;10.40;8.60;;;10.30;99.90;;;;;;5036452;28;20040;-60
2023/05/06 02:54:02;;;;;;;10.48;8.18;;;10.30;99.90;;;;;;5048938;28;20380;-59
2023/05/06 02:56:27;;;;;;;9.77;8.55;;;10.30;99.90;;;;;;5036744;28;20112;-60
2023/05/06 02:58:53;;;;;;;9.57;7.88;;;10.30;99.90;;;;;;5036454;28;20080;-59
2023/05/06 03:01:20;;;;;;;10.70;7.80;;;10.30;99.90;;;;;;5046279;28;20041;-58
2023/05/06 03:03:46;;;;;;;9.00;7.63;;;10.30;99.90;;;;;;5037590;28;20045;-59
2023/05/06 03:06:11;;;;;;;9.75;7.50;;;10.30;99.90;;;;;;5035456;28;20148;-60
2023/05/06 03:08:37;;;;;;;10.73;8.50;;;10.30;99.90;;;;;;5035918;28;20264;-58
2023/05/06 03:11:03;;;;;;;10.10;8.57;;;10.20;99.90;;;;;;5039013;28;20029;-60
2023/05/06 03:13:28;;;;;;;10.50;8.93;;;10.20;99.90;;;;;;5036532;28;20049;-61
2023/05/06 03:15:54;;;;;;;8.80;7.72;;;10.20;99.90;;;;;;5041648;28;20463;-62
2023/05/06 03:18:20;;;;;;;10.98;7.88;;;10.10;99.90;;;;;;5041582;28;21275;-60
2023/05/06 03:20:47;;;;;;;9.63;8.05;;;10.10;99.90;;;;;;5040180;28;20263;-59
2023/05/06 03:23:13;;;;;;;10.55;8.10;;;10.10;99.90;;;;;;5041649;28;20527;-59
2023/05/06 03:25:39;;;;;;;11.68;9.20;;;10.00;99.90;;;;;;5050088;28;20037;-59
2023/05/06 03:28:04;;;;;;;9.40;8.23;;;10.00;99.90;;;;;;5045822;28;20045;-59
2023/05/06 03:30:30;;;;;;;9.80;8.32;;;10.00;99.90;;;;;;5036484;28;20392;-60
2023/05/06 03:32:59;;;;;;;13.32;9.25;;;9.90;99.90;;;;;;5049086;28;20045;-59
2023/05/06 03:35:24;;;;;;;12.40;9.93;;;9.90;99.90;;;;;;5033019;28;20154;-60
2023/05/06 03:37:50;;;;;;;14.20;10.05;;;9.90;99.90;;;;;;5037968;28;20128;-59
2023/05/06 03:40:16;;;;;;;11.85;10.18;;;9.90;99.90;;;;;;5055801;28;20049;-60
2023/05/06 03:42:42;;;;;;;11.88;9.13;;;9.90;99.90;;;;;;5045505;28;20044;-58
2023/05/06 03:45:08;;;;;;;12.82;10.25;;;9.90;99.90;;;;;;5046044;28;20037;-59
2023/05/06 03:47:33;;;;;;;10.35;9.13;;;9.80;99.90;;;;;;5049231;28;20118;-59
2023/05/06 03:49:59;;;;;;;11.77;9.73;;;9.90;99.90;;;;;;5049673;28;20037;-58
2023/05/06 03:52:25;;;;;;;13.07;10.88;;;9.90;99.90;;;;;;5040825;28;20048;-59
2023/05/06 03:54:50;;;;;;;15.20;11.07;;;9.90;99.90;;;;;;5037681;28;20760;-59
2023/05/06 03:57:16;;;;;;;13.25;10.45;;;9.80;99.90;;;;;;5039112;28;20041;-60
2023/05/06 03:59:42;;;;;;;11.25;9.50;;;9.80;99.90;;;;;;5049879;28;20052;-57
2023/05/06 04:02:07;;;;;;;11.68;8.82;;;9.80;99.90;;;;;;5052845;28;20045;-60
2023/05/06 04:04:33;;;;;;;9.88;8.82;;;9.80;99.90;;;;;;5045285;28;20045;-58
2023/05/06 04:06:59;;;;;;;10.10;9.00;;;9.80;99.90;;;;;;5050102;28;20160;-59
2023/05/06 04:09:25;;;;;;;12.85;10.82;;;9.80;99.90;;;;;;5068157;28;20048;-59
2023/05/06 04:11:51;;;;;;;12.50;9.77;;;9.70;99.90;;;;;;5049259;28;20045;-61
2023/05/06 04:14:16;;;;;;;12.32;10.48;;;9.70;99.90;;;;;;5046089;28;20028;-61
2023/05/06 04:16:42;;;;;;;13.90;11.25;;;9.70;99.90;;;;;;5050881;28;20041;-60
2023/05/06 04:19:08;;;;;;;13.05;9.77;;;9.70;99.90;;;;;;5052774;28;20048;-60
2023/05/06 04:21:33;;;;;;;11.63;9.35;;;9.70;99.90;;;;;;5048401;28;20083;-60
2023/05/06 04:23:59;;;;;;;13.55;10.07;;;9.70;99.90;;;;;;5048701;28;20108;-57
2023/05/06 04:26:25;;;;;;;9.75;8.38;;;9.70;99.90;;;;;;5044334;28;20040;-59
2023/05/06 04:28:50;;;;;;;13.40;9.57;;;9.80;99.90;;;;;;5051802;28;20087;-59
2023/05/06 04:31:16;;;;;;;13.55;9.90;;;9.80;99.90;;;;;;5050647;28;20037;-61
2023/05/06 04:33:41;;;;;;;13.50;11.35;;;9.80;99.90;;;;;;5051937;28;20388;-60
2023/05/06 04:36:07;;;;;;;12.85;10.40;;;9.80;99.90;;;;;;5049316;28;20041;-60
2023/05/06 04:38:34;;;;;;;13.80;10.13;;;9.80;99.90;;;;;;5045990;28;20040;-59
2023/05/06 04:41:00;;;;;;;14.98;9.82;;;9.90;99.90;;;;;;5052273;28;20056;-60
2023/05/06 04:43:29;;;;;;;11.57;9.65;;;9.90;99.90;;;;;;5050856;28;20037;-60
2023/05/06 04:45:54;;;;;;;12.15;9.85;;;9.90;99.90;;;;;;5050760;28;20459;-61
2023/05/06 04:48:21;;;;;;;11.43;9.07;;;10.00;99.90;;;;;;5050740;28;20037;-59
2023/05/06 04:50:47;;;;;;;9.82;7.43;;;10.00;99.90;;;;;;5049940;28;20037;-61
2023/05/06 04:53:13;;;;;;;8.50;7.03;;;10.00;99.90;;;;;;5051903;28;20361;-59
2023/05/06 04:55:39;;;;;;;9.10;6.72;;;10.00;99.90;;;;;;5047998;28;20041;-61
2023/05/06 04:58:05;;;;;;;7.88;6.97;;;10.00;99.90;;;;;;5050660;28;20408;-59
2023/05/06 05:00:30;;;;;;;8.70;7.47;;;10.10;99.90;;;;;;5049558;28;20048;-59
2023/05/06 05:02:56;;;;;;;8.43;6.88;;;10.20;99.90;;;;;;5051914;28;20040;-60
2023/05/06 05:05:23;;;;;;;8.10;6.97;;;10.20;99.90;;;;;;5050523;28;20041;-59
2023/05/06 05:07:48;;;;;;;8.02;7.22;;;10.40;99.90;;;;;;5051489;28;20056;-59
2023/05/06 05:10:14;;;;;;;10.02;8.88;;;10.40;99.90;;;;;;5050881;28;20041;-58
2023/05/06 05:12:40;;;;;;;13.60;10.43;;;10.60;99.90;;;;;;5049400;28;20156;-59
2023/05/06 05:15:06;;;;;;;15.02;11.30;;;10.60;99.90;;;;;;5050103;28;20399;-60
2023/05/06 05:17:31;;;;;;;15.18;11.70;;;10.70;99.90;;;;;;5047842;28;20037;-58
2023/05/06 05:19:57;;;;;;;15.07;12.13;;;10.90;99.90;;;;;;5051362;28;20029;-59
2023/05/06 05:22:23;;;;;;;17.63;14.60;;;10.90;99.90;;;;;;5050232;28;20041;-61
2023/05/06 05:24:48;;;;;;;16.67;13.75;;;11.00;99.90;;;;;;5051738;28;20025;-60
2023/05/06 05:27:14;;;;;;;18.35;14.15;;;11.10;99.90;;;;;;5051488;28;20120;-60
2023/05/06 05:29:39;;;;;;;17.23;14.30;;;11.10;99.90;;;;;;5050917;28;20095;-61
2023/05/06 05:32:05;;;;;;;18.92;15.25;;;11.20;99.90;;;;;;5051108;28;20029;-60
2023/05/06 05:34:31;;;;;;;19.30;15.77;;;11.20;99.90;;;;;;5051339;28;20404;-61
2023/05/06 05:36:57;;;;;;;19.10;14.93;;;11.30;99.90;;;;;;5051358;28;20115;-61
2023/05/06 05:39:22;;;;;;;18.45;15.23;;;11.30;99.90;;;;;;5050351;28;20226;-60
2023/05/06 05:41:48;;;;;;;19.73;16.55;;;11.40;99.90;;;;;;5044999;28;20056;-60
2023/05/06 05:44:14;;;;;;;20.33;15.80;;;11.30;99.90;;;;;;5050982;28;20116;-59
2023/05/06 05:46:41;;;;;;;22.80;16.27;;;11.40;99.90;;;;;;5050996;28;20029;-61
2023/05/06 05:49:06;;;;;;;17.70;14.15;;;11.40;99.90;;;;;;5050557;28;20036;-60
2023/05/06 05:51:32;;;;;;;18.13;14.75;;;11.30;99.90;;;;;;5048997;28;20058;-61
2023/05/06 05:53:58;;;;;;;16.10;13.07;;;11.30;99.90;;;;;;5050927;28;20112;-60
2023/05/06 05:56:23;;;;;;;16.00;13.65;;;11.20;99.90;;;;;;5050964;28;20041;-60
2023/05/06 05:58:49;;;;;;;14.05;11.85;;;11.20;99.90;;;;;;5050575;28;20053;-59
2023/05/06 06:01:15;;;;;;;12.35;11.15;;;11.20;99.90;;;;;;5050980;28;20052;-59
2023/05/06 06:03:41;;;;;;;13.00;11.68;;;11.10;99.90;;;;;;5049763;28;20048;-60
2023/05/06 06:06:07;;;;;;;13.13;11.52;;;11.10;99.90;;;;;;5050658;28;20072;-60
2023/05/06 06:08:33;;;;;;;13.88;12.38;;;11.10;99.90;;;;;;5050966;28;20495;-60
2023/05/06 06:10:59;;;;;;;14.23;12.40;;;11.10;99.90;;;;;;5050302;28;20036;-59
2023/05/06 06:13:26;;;;;;;13.43;11.93;;;11.20;99.90;;;;;;5050588;28;20071;-60
2023/05/06 06:15:52;;;;;;;13.57;12.05;;;11.20;99.90;;;;;;5050637;28;20033;-61
2023/05/06 06:18:17;;;;;;;14.00;12.07;;;11.20;99.90;;;;;;5050727;28;20036;-59
2023/05/06 06:20:43;;;;;;;14.68;13.00;;;11.20;99.90;;;;;;5049804;28;20037;-59
2023/05/06 06:23:09;;;;;;;14.60;12.90;;;11.30;99.90;;;;;;5045984;28;20373;-60
2023/05/06 06:25:35;;;;;;;15.07;13.25;;;11.40;99.90;;;;;;5048675;28;20445;-59
2023/05/06 06:28:01;;;;;;;17.13;15.00;;;11.50;99.90;;;;;;5048937;28;20127;-58
2023/05/06 06:30:27;;;;;;;18.10;14.45;;;11.50;99.90;;;;;;5049996;28;20068;-60
2023/05/06 06:32:54;;;;;;;17.25;14.40;;;11.60;99.90;;;;;;5047781;28;20075;-60
2023/05/06 06:35:20;;;;;;;17.27;14.77;;;11.60;99.90;;;;;;5047937;28;20037;-58
2023/05/06 06:37:46;;;;;;;16.50;13.98;;;11.70;99.90;;;;;;5050218;28;20098;-60
2023/05/06 06:40:12;;;;;;;18.35;15.55;;;11.70;99.90;;;;;;5048112;28;20036;-60
2023/05/06 06:42:38;;;;;;;15.80;14.10;;;11.80;99.90;;;;;;5047152;28;20044;-59
2023/05/06 06:45:04;;;;;;;18.52;15.80;;;11.90;99.90;;;;;;5049820;28;20369;-59
2023/05/06 06:47:29;;;;;;;17.65;15.02;;;12.10;99.90;;;;;;5049600;28;20055;-59
2023/05/06 06:49:55;;;;;;;15.95;14.23;;;12.30;99.90;;;;;;5046866;28;20025;-57
2023/05/06 06:52:21;;;;;;;16.77;14.63;;;12.60;99.90;;;;;;5049425;28;20140;-58
2023/05/06 06:54:46;;;;;;;16.35;14.13;;;12.80;99.90;;;;;;5048249;28;20503;-58
2023/05/06 06:57:12;;;;;;;15.88;14.02;;;13.10;99.90;;;;;;5048492;28;20037;-60
2023/05/06 06:59:37;;;;;;;15.30;13.70;;;13.30;99.90;;;;;;5048010;28;20462;-60
2023/05/06 07:02:03;;;;;;;15.20;12.98;;;13.50;99.90;;;;;;5045508;28;20049;-60
2023/05/06 07:04:29;;;;;;;15.07;13.30;;;13.70;99.90;;;;;;5048896;28;20170;-59
2023/05/06 07:06:55;;;;;;;16.20;13.23;;;13.90;99.90;;;;;;5049686;28;20072;-59
2023/05/06 07:09:21;;;;;;;14.75;13.18;;;14.00;99.90;;;;;;5049539;28;20028;-60
2023/05/06 07:11:46;;;;;;;15.95;13.50;;;14.10;99.90;;;;;;5049595;28;20033;-61
2023/05/06 07:14:12;;;;;;;15.15;13.63;;;14.20;99.90;;;;;;5046649;28;20045;-61
2023/05/06 07:16:37;;;;;;;14.45;12.93;;;14.40;99.90;;;;;;5049872;28;20041;-61
2023/05/06 07:19:03;;;;;;;15.18;12.98;;;14.50;99.90;;;;;;5051367;28;20041;-59
2023/05/06 07:21:31;;;;;;;13.68;12.07;;;14.70;99.90;;;;;;5053420;28;20032;-59
2023/05/06 07:23:57;;;;;;;13.63;12.05;;;14.80;99.90;;;;;;5053785;28;20037;-60
2023/05/06 07:26:23;;;;;;;13.43;12.02;;;14.90;99.90;;;;;;5053321;28;20431;-59
2023/05/06 07:28:48;;;;;;;14.38;12.40;;;15.00;99.90;;;;;;5052759;28;20040;-59
2023/05/06 07:31:15;;;;;;;11.80;10.60;;;15.10;99.90;;;;;;5052356;28;20512;-61
2023/05/06 07:33:41;;;;;;;12.20;10.90;;;15.20;99.90;;;;;;5052356;28;20091;-59
2023/05/06 07:36:07;;;;;;;12.85;10.57;;;15.30;99.90;;;;;;5053477;28;20442;-59
2023/05/06 07:38:33;;;;;;;11.60;10.27;;;15.40;99.90;;;;;;5051668;28;20036;-59
2023/05/06 07:40:59;;;;;;;11.13;9.95;;;15.50;99.90;;;;;;5053194;28;20194;-61
2023/05/06 07:43:24;;;;;;;9.98;8.98;;;15.50;99.90;;;;;;5050831;28;20045;-60
2023/05/06 07:45:50;;;;;;;10.93;9.70;;;15.60;99.90;;;;;;5053021;28;20045;-61
2023/05/06 07:48:16;;;;;;;10.57;9.45;;;15.80;99.90;;;;;;5051905;28;20403;-59
2023/05/06 07:50:41;;;;;;;10.05;9.05;;;15.90;99.90;;;;;;5052986;28;20033;-61
2023/05/06 07:53:07;;;;;;;9.93;8.88;;;15.90;99.90;;;;;;5050909;28;20048;-60
2023/05/06 07:55:32;;;;;;;9.93;8.52;;;16.10;99.90;;;;;;5052737;28;20047;-58
2023/05/06 07:57:58;;;;;;;10.48;8.80;;;16.20;99.90;;;;;;5052932;28;21798;-59
2023/05/06 08:00:24;;;;;;;8.43;7.57;;;16.20;99.90;;;;;;5052895;28;20048;-61
2023/05/06 08:02:49;;;;;;;8.98;8.02;;;16.30;99.90;;;;;;5049872;28;20071;-61
2023/05/06 08:05:16;;;;;;;8.65;7.75;;;16.40;99.90;;;;;;5052758;28;20446;-60
2023/05/06 08:07:41;;;;;;;8.55;7.22;;;16.60;99.90;;;;;;5052757;28;20432;-61
2023/05/06 08:10:08;;;;;;;8.45;7.18;;;16.80;99.90;;;;;;5052697;28;20043;-59
2023/05/06 08:12:35;;;;;;;8.60;6.82;;;16.90;99.90;;;;;;5052637;28;20484;-60
2023/05/06 08:15:01;;;;;;;7.20;6.50;;;17.10;99.90;;;;;;5052836;28;20269;-59
2023/05/06 08:17:27;;;;;;;7.97;7.18;;;17.20;99.90;;;;;;5052953;28;20048;-59
2023/05/06 08:19:53;;;;;;;7.80;7.00;;;17.20;99.90;;;;;;5052574;28;20033;-61
2023/05/06 08:22:19;;;;;;;7.82;7.03;;;17.40;99.90;;;;;;5052966;28;20037;-59
2023/05/06 08:24:44;;;;;;;7.03;6.32;;;17.50;99.90;;;;;;5051946;28;20398;-60
2023/05/06 08:27:10;;;;;;;8.65;6.70;;;17.60;99.90;;;;;;5052350;28;20044;-61
2023/05/06 08:29:35;;;;;;;8.90;7.30;;;17.70;99.90;;;;;;5052140;28;20037;-59
2023/05/06 08:32:01;;;;;;;8.80;6.82;;;17.90;99.90;;;;;;5050424;28;20052;-59
2023/05/06 08:34:27;;;;;;;7.63;6.85;;;18.10;99.90;;;;;;5052263;28;20412;-60
2023/05/06 08:36:52;;;;;;;8.25;6.68;;;18.00;99.90;;;;;;5048433;28;20041;-58
2023/05/06 08:39:18;;;;;;;7.88;6.93;;;18.10;99.90;;;;;;5050809;28;20175;-59
2023/05/06 08:41:47;;;;;;;7.57;6.60;;;18.10;99.90;;;;;;5052356;28;20040;-60
2023/05/06 08:44:18;;;;;;;8.27;6.82;;;18.20;99.90;;;;;;5052311;28;20434;-60
2023/05/06 08:46:45;;;;;;;9.55;7.18;;;18.20;99.90;;;;;;5051679;28;20510;-58
2023/05/06 08:49:11;;;;;;;8.35;6.20;;;18.30;99.90;;;;;;5051933;28;20041;-59
2023/05/06 08:51:37;;;;;;;7.68;6.88;;;18.40;99.90;;;;;;5052015;28;20037;-59
2023/05/06 08:54:03;;;;;;;7.95;6.68;;;18.50;99.90;;;;;;5051521;28;20078;-60
2023/05/06 08:56:32;;;;;;;9.43;7.28;;;18.70;99.90;;;;;;5049141;28;20455;-60
2023/05/06 08:58:58;;;;;;;7.43;6.55;;;18.90;99.90;;;;;;5061347;28;20568;-61
2023/05/06 09:01:26;;;;;;;8.18;7.30;;;19.10;99.90;;;;;;5051887;28;20144;-60
2023/05/06 09:03:53;;;;;;;7.13;6.32;;;19.30;99.90;;;;;;5050342;28;20075;-59
2023/05/06 09:06:18;;;;;;;8.05;6.43;;;19.50;99.90;;;;;;5049526;28;20492;-61
2023/05/06 09:08:44;;;;;;;8.02;7.22;;;19.60;99.90;;;;;;5050768;28;20078;-61
2023/05/06 09:11:25;;;;;;;8.57;7.00;;;19.50;99.90;;;;;;5049207;28;20045;-61
2023/05/06 09:14:15;;;;;;;9.27;6.88;;;19.60;99.90;;;;;;5050207;28;20116;-61
2023/05/06 09:16:43;;;;;;;8.85;6.68;;;19.70;99.90;;;;;;5051574;28;20064;-59
2023/05/06 09:19:09;;;;;;;8.65;6.47;;;19.90;99.90;;;;;;5051111;28;20112;-60
2023/05/06 09:21:40;;;;;;;7.85;6.88;;;20.10;99.90;;;;;;5049763;28;20623;-61
2023/05/06 09:24:07;;;;;;;7.28;6.55;;;20.30;99.90;;;;;;5049865;28;20116;-61
2023/05/06 09:26:34;;;;;;;8.10;6.75;;;20.20;99.90;;;;;;5050713;28;20049;-60
2023/05/06 09:29:01;;;;;;;7.88;6.88;;;20.10;99.90;;;;;;5048870;28;20392;-61
2023/05/06 09:31:27;;;;;;;10.60;5.90;;;20.30;99.90;;;;;;5051126;28;20029;-60
2023/05/06 09:33:55;;;;;;;8.70;6.60;;;20.30;99.90;;;;;;5050262;28;20124;-62
2023/05/06 09:36:22;;;;;;;9.20;6.03;;;20.30;99.90;;;;;;5050185;28;20043;-61
2023/05/06 09:38:48;;;;;;;8.38;6.70;;;20.50;99.90;;;;;;5050416;28;20056;-61
2023/05/06 09:41:15;;;;;;;9.30;6.53;;;20.60;99.90;;;;;;5048320;28;20064;-61
2023/05/06 09:43:47;;;;;;;8.77;6.28;;;20.60;99.90;;;;;;5050258;28;20040;-61
2023/05/06 09:46:14;;;;;;;9.25;6.22;;;20.70;99.90;;;;;;5049799;28;20044;-61
2023/05/06 09:48:40;;;;;;;8.30;6.97;;;21.00;99.90;;;;;;5050955;28;20049;-62
2023/05/06 09:51:06;;;;;;;9.80;7.30;;;21.20;99.90;;;;;;5050931;28;20414;-60
2023/05/06 09:53:38;;;;;;;9.35;6.80;;;21.10;99.90;;;;;;5048839;28;20547;-62
2023/05/06 09:56:07;;;;;;;10.15;7.20;;;20.90;99.90;;;;;;5049817;28;20438;-61
2023/05/06 09:58:34;;;;;;;7.88;6.53;;;20.80;99.90;;;;;;5048400;28;20124;-62
2023/05/06 10:01:02;;;;;;;9.70;7.93;;;21.00;99.90;;;;;;5050186;28;20044;-61
2023/05/06 10:03:29;;;;;;;9.23;8.13;;;21.30;99.90;;;;;;5048907;28;20079;-61
2023/05/06 10:05:56;;;;;;;9.15;7.22;;;21.20;99.90;;;;;;5049599;28;20134;-62
2023/05/06 10:08:25;;;;;;;11.25;7.63;;;21.20;99.90;;;;;;5048780;28;20452;-61
2023/05/06 10:10:52;;;;;;;10.35;8.55;;;21.30;99.90;;;;;;5049867;28;20029;-61
2023/05/06 10:13:19;;;;;;;10.20;7.22;;;21.30;99.90;;;;;;5050369;28;20037;-62
2023/05/06 10:15:47;;;;;;;8.93;6.20;;;21.40;99.90;;;;;;5050852;28;20049;-61
2023/05/06 10:18:15;;;;;;;7.32;6.20;;;21.40;99.90;;;;;;5049257;28;20041;-60
2023/05/06 10:20:43;;;;;;;10.07;6.53;;;21.40;99.90;;;;;;5050293;28;20041;-61
2023/05/06 10:23:40;;;;;;;8.20;6.88;;;21.50;99.90;;;;;;5049736;28;20061;-62
2023/05/06 10:26:09;;;;;;;8.15;7.00;;;21.80;99.90;;;;;;5049541;28;20502;-60
2023/05/06 10:28:45;;;;;;;10.23;7.20;;;22.20;99.90;;;;;;5048881;28;20037;-62
2023/05/06 10:31:12;;;;;;;9.05;7.28;;;22.30;99.90;;;;;;5050204;28;20049;-58
2023/05/06 10:33:46;;;;;;;9.27;7.28;;;22.10;99.90;;;;;;5049013;28;20072;-62
2023/05/06 10:36:24;;;;;;;9.65;8.05;;;22.00;99.90;;;;;;5048921;28;20079;-62
2023/05/06 10:38:55;;;;;;;12.02;9.25;;;21.90;99.90;;;;;;5050218;28;20037;-60
2023/05/06 10:41:24;;;;;;;10.25;7.45;;;21.90;99.90;;;;;;5050455;28;20043;-61
2023/05/06 10:43:55;;;;;;;7.20;5.72;;;21.70;99.90;;;;;;5049940;28;20033;-59
2023/05/06 10:46:22;;;;;;;8.25;6.45;;;21.70;99.90;;;;;;5050143;28;20033;-61
2023/05/06 10:49:04;;;;;;;8.35;6.53;;;21.90;99.90;;;;;;5048909;28;20083;-59
2023/05/06 10:51:34;;;;;;;9.87;7.37;;;21.90;99.90;;;;;;5048109;28;20045;-62
2023/05/06 10:54:06;;;;;;;11.75;8.35;;;22.30;99.90;;;;;;5049475;28;20325;-62
2023/05/06 10:56:57;;;;;;;7.97;6.90;;;22.40;99.90;;;;;;5048446;28;20090;-60
2023/05/06 10:59:24;;;;;;;9.77;7.68;;;22.80;99.90;;;;;;5065040;28;20144;-61
2023/05/06 11:02:04;;;;;;;9.85;7.55;;;23.10;99.90;;;;;;5049950;28;20047;-61
2023/05/06 11:04:30;;;;;;;8.02;6.68;;;23.20;99.90;;;;;;5049519;28;20407;-62
2023/05/06 11:07:07;;;;;;;9.30;7.13;;;23.00;99.90;;;;;;5048070;28;20071;-61
2023/05/06 11:09:32;;;;;;;8.13;6.63;;;23.10;99.80;;;;;;5050075;28;20045;-60
2023/05/06 11:12:01;;;;;;;8.65;6.45;;;23.10;99.90;;;;;;5047128;28;20029;-60
2023/05/06 11:14:37;;;;;;;10.73;6.95;;;22.70;99.90;;;;;;5031760;28;20069;-62
2023/05/06 11:17:28;;;;;;;8.35;6.85;;;22.40;99.90;;;;;;5049724;28;20127;-59
2023/05/06 11:20:17;;;;;;;8.05;5.88;;;22.20;99.90;;;;;;5049047;28;20052;-60
2023/05/06 11:22:42;;;;;;;8.13;6.22;;;21.70;99.90;;;;;;5049293;28;20041;-61
2023/05/06 11:25:08;;;;;;;9.13;6.78;;;21.40;99.90;;;;;;5047050;28;20044;-58
2023/05/06 11:27:35;;;;;;;9.45;6.53;;;21.20;99.90;;;;;;5049118;28;20045;-61
2023/05/06 11:30:00;;;;;;;8.30;6.43;;;21.10;99.90;;;;;;5049262;28;20036;-59
2023/05/06 11:32:28;;;;;;;8.20;5.93;;;20.90;99.90;;;;;;5049358;28;20033;-59
2023/05/06 11:34:55;;;;;;;6.72;5.53;;;20.60;99.90;;;;;;5047939;28;20514;-61
2023/05/06 11:37:26;;;;;;;8.57;7.03;;;20.50;99.90;;;;;;5049083;28;20048;-60
2023/05/06 11:39:52;;;;;;;9.35;6.63;;;20.50;99.90;;;;;;5047149;28;20476;-59
2023/05/06 11:42:25;;;;;;;8.88;6.45;;;20.40;99.90;;;;;;5049120;28;20048;-60
2023/05/06 11:44:54;;;;;;;9.63;6.80;;;20.40;99.90;;;;;;5048931;28;20090;-61
2023/05/06 11:47:21;;;;;;;7.45;6.05;;;20.30;99.90;;;;;;5048730;28;20053;-61
2023/05/06 11:49:50;;;;;;;7.57;6.38;;;20.30;99.90;;;;;;5046868;28;20565;-61
2023/05/06 11:52:21;;;;;;;9.15;6.68;;;20.40;99.90;;;;;;5048371;28;20041;-61
2023/05/06 11:54:49;;;;;;;8.18;6.43;;;20.60;99.90;;;;;;5046785;28;20116;-60
2023/05/06 11:57:15;;;;;;;9.18;5.90;;;21.00;99.90;;;;;;5047962;28;20049;-60
2023/05/06 11:59:40;;;;;;;9.70;6.38;;;21.60;99.90;;;;;;5049007;28;20079;-60
2023/05/06 12:02:12;;;;;;;9.95;6.72;;;21.80;99.90;;;;;;5047603;28;20033;-62
2023/05/06 12:04:43;;;;;;;9.32;6.53;;;22.10;99.90;;;;;;5032896;28;20057;-62
2023/05/06 12:07:10;;;;;;;8.63;6.50;;;21.90;99.90;;;;;;5050936;28;20040;-62
2023/05/06 12:09:39;;;;;;;10.07;6.68;;;21.80;99.90;;;;;;5051144;28;20068;-61
2023/05/06 12:12:06;;;;;;;8.88;6.03;;;21.50;99.90;;;;;;5048428;28;20041;-60
2023/05/06 12:14:32;;;;;;;8.65;5.22;;;21.40;99.90;;;;;;5050524;28;20052;-62
2023/05/06 12:16:58;;;;;;;7.90;5.93;;;21.40;99.90;;;;;;5051952;28;20041;-62
2023/05/06 12:19:24;;;;;;;7.03;5.30;;;21.60;99.90;;;;;;5050882;28;20049;-60
2023/05/06 12:21:50;;;;;;;8.63;5.50;;;21.70;99.90;;;;;;5050385;28;20041;-62
2023/05/06 12:24:26;;;;;;;8.57;5.32;;;21.90;99.90;;;;;;5052286;28;20048;-60
2023/05/06 12:26:52;;;;;;;7.25;5.47;;;22.00;99.90;;;;;;5050702;28;20037;-62
2023/05/06 12:29:18;;;;;;;6.47;5.20;;;22.00;99.90;;;;;;5052284;28;20040;-61
2023/05/06 12:31:48;;;;;;;8.20;5.68;;;21.80;99.10;;;;;;5050797;28;20116;-62
2023/05/06 12:34:17;;;;;;;8.60;5.85;;;21.90;99.80;;;;;;5050673;28;20059;-61
2023/05/06 12:36:45;;;;;;;8.07;5.32;;;21.70;99.20;;;;;;5048876;28;20139;-61
2023/05/06 12:39:11;;;;;;;11.07;6.25;;;21.40;98.90;;;;;;5047833;28;20048;-60
2023/05/06 12:41:43;;;;;;;8.48;5.43;;;21.20;99.30;;;;;;5050642;28;20527;-62